Time;durP1;ratioP1;P1;durP2;ratioP2;P2;SDS_P1;SDS_P2;PMS_P1;PMS_P2;Temp;Humidity;BMP_temperature;BMP_pressure;BME280_temperature;BME280_humidity;BME280_pressure;Samples;Min_cycle;Max_cycle;Signal;HPM_P1;HPM_P2
2020/12/19 00:02:26;;;;;;;0.82;0.82;;;;;;;0.25;100.00;101847.71;1701946;84;21150;-54
2020/12/19 00:04:53;;;;;;;0.05;0.05;;;;;;;0.25;100.00;101850.40;1701933;83;21154;-54
2020/12/19 00:07:21;;;;;;;0.42;0.42;;;;;;;0.25;100.00;101849.05;1701842;84;21592;-55
2020/12/19 00:09:48;;;;;;;1.25;0.70;;;;;;;0.24;100.00;101847.88;1701942;84;21145;-55
2020/12/19 00:12:22;;;;;;;3.47;0.82;;;;;;;0.24;100.00;101846.02;1701830;83;21142;-54
2020/12/19 00:14:50;;;;;;;1.37;1.32;;;;;;;0.23;100.00;101849.73;1701955;84;21165;-55
2020/12/19 00:17:17;;;;;;;0.78;0.78;;;;;;;0.22;100.00;101848.05;1701700;84;21595;-55
2020/12/19 00:19:45;;;;;;;0.60;0.60;;;;;;;0.20;100.00;101840.17;1701876;84;21143;-55
2020/12/19 00:22:12;;;;;;;0.20;0.20;;;;;;;0.19;100.00;101847.06;1701678;84;21157;-55
2020/12/19 00:24:40;;;;;;;1.05;1.00;;;;;;;0.19;100.00;101843.86;1701671;84;21158;-55
2020/12/19 00:27:10;;;;;;;0.08;0.08;;;;;;;0.17;100.00;101843.22;1700797;83;21233;-55
2020/12/19 00:29:38;;;;;;;0.40;0.40;;;;;;;0.17;100.00;101840.53;1696335;84;21198;-55
2020/12/19 00:32:05;;;;;;;0.10;0.10;;;;;;;0.16;100.00;101858.17;1696324;84;21214;-55
2020/12/19 00:34:33;;;;;;;0.20;0.20;;;;;;;0.15;100.00;101855.16;1696559;84;21149;-55
2020/12/19 00:37:01;;;;;;;0.00;0.00;;;;;;;0.15;100.00;101853.30;1696545;84;21138;-55
2020/12/19 00:39:28;;;;;;;0.28;0.25;;;;;;;0.15;100.00;101852.48;1726886;83;21118;-54
2020/12/19 00:41:56;;;;;;;1.95;0.65;;;;;;;0.16;100.00;101846.08;1727001;82;21169;-55
2020/12/19 00:44:23;;;;;;;0.25;0.20;;;;;;;0.15;100.00;101849.79;1727047;83;21122;-55
2020/12/19 00:46:51;;;;;;;0.17;0.17;;;;;;;0.14;100.00;101855.64;1727100;83;21110;-55
2020/12/19 00:49:19;;;;;;;0.03;0.03;;;;;;;0.15;100.00;101853.83;1727147;81;21477;-55
2020/12/19 00:51:46;;;;;;;0.28;0.28;;;;;;;0.13;100.00;101842.41;1727130;83;21146;-54
2020/12/19 00:54:13;;;;;;;0.72;0.72;;;;;;;0.14;100.00;101838.69;1727028;81;22182;-54
2020/12/19 00:56:41;;;;;;;1.95;0.88;;;;;;;0.13;100.00;101830.31;1727145;83;21134;-54
2020/12/19 00:59:08;;;;;;;0.05;0.05;;;;;;;0.12;100.00;101835.34;1727060;81;21125;-55
2020/12/19 01:01:36;;;;;;;0.85;0.82;;;;;;;0.13;100.00;101835.68;1727140;82;21166;-55
2020/12/19 01:04:03;;;;;;;0.10;0.10;;;;;;;0.12;100.00;101823.23;1727062;81;21126;-54
2020/12/19 01:06:30;;;;;;;0.88;0.82;;;;;;;0.11;100.00;101822.41;1727114;82;21130;-54
2020/12/19 01:09:00;;;;;;;0.37;0.37;;;;;;;0.11;100.00;101824.27;1727040;81;21491;-55
2020/12/19 01:11:29;;;;;;;0.28;0.28;;;;;;;0.11;100.00;101826.95;1726487;83;21454;-54
2020/12/19 01:13:57;;;;;;;0.75;0.37;;;;;;;0.12;100.00;101823.23;1727126;81;21596;-55
2020/12/19 01:16:28;;;;;;;0.37;0.37;;;;;;;0.11;100.00;101821.58;1727017;83;21600;-54
2020/12/19 01:18:58;;;;;;;0.65;0.65;;;;;;;0.10;100.00;101817.20;1727037;81;21476;-55
2020/12/19 01:21:27;;;;;;;0.00;0.00;;;;;;;0.11;100.00;101825.61;1727138;82;21553;-54
2020/12/19 01:23:55;;;;;;;0.33;0.33;;;;;;;0.12;100.00;101820.55;1727069;81;21158;-55
2020/12/19 01:26:23;;;;;;;0.45;0.45;;;;;;;0.11;100.00;101819.72;1727112;83;21166;-55
2020/12/19 01:28:50;;;;;;;1.72;1.62;;;;;;;0.11;100.00;101810.83;1731054;81;21118;-54
2020/12/19 01:31:20;;;;;;;0.10;0.10;;;;;;;0.13;100.00;101815.52;1732577;82;21131;-55
2020/12/19 01:33:48;;;;;;;0.15;0.15;;;;;;;0.13;100.00;101812.84;1732447;81;21014;-55
2020/12/19 01:36:21;;;;;;;0.50;0.50;;;;;;;0.13;100.00;101814.17;1732724;82;21127;-55
2020/12/19 01:38:49;;;;;;;0.50;0.50;;;;;;;0.11;100.00;101824.27;1732535;81;21145;-54
2020/12/19 01:41:16;;;;;;;0.10;0.10;;;;;;;0.10;100.00;101820.75;1732644;82;21127;-55
2020/12/19 01:43:55;;;;;;;0.30;0.30;;;;;;;0.10;100.00;101817.20;1732569;81;21237;-54
2020/12/19 01:46:38;;;;;;;0.85;0.82;;;;;;;0.10;100.00;101811.82;1729395;82;21576;-55
2020/12/19 01:49:05;;;;;;;0.50;0.50;;;;;;;0.09;100.00;101815.53;1732927;81;21129;-54
2020/12/19 01:51:33;;;;;;;0.13;0.13;;;;;;;0.09;100.00;101817.70;1732667;82;21110;-54
2020/12/19 01:54:00;;;;;;;0.10;0.10;;;;;;;0.10;100.00;101818.54;1732534;81;21146;-55
2020/12/19 01:56:52;;;;;;;0.00;0.00;;;;;;;0.10;100.00;101819.88;1732649;82;21196;-54
2020/12/19 01:59:22;;;;;;;0.30;0.30;;;;;;;0.08;100.00;101817.91;1732578;81;21177;-54
2020/12/19 02:01:56;;;;;;;0.70;0.70;;;;;;;0.07;100.00;101821.08;1732609;82;21114;-55
2020/12/19 02:04:25;;;;;;;0.35;0.35;;;;;;;0.08;100.00;101820.59;1732651;81;21190;-55
2020/12/19 02:06:55;;;;;;;0.08;0.08;;;;;;;0.10;100.00;101815.85;1732844;82;21587;-54
2020/12/19 02:09:26;;;;;;;0.20;0.20;;;;;;;0.10;100.00;101825.26;1732767;81;21429;-54
2020/12/19 02:11:54;;;;;;;0.00;0.00;;;;;;;0.10;100.00;101822.57;1702522;82;21177;-55
2020/12/19 02:14:22;;;;;;;0.30;0.30;;;;;;;0.09;100.00;101820.91;1732711;81;21166;-54
2020/12/19 02:17:01;;;;;;;0.98;0.28;;;;;;;0.10;100.00;101824.78;1732759;82;21160;-54
2020/12/19 02:19:28;;;;;;;0.35;0.35;;;;;;;0.11;100.00;101823.75;1732817;81;21139;-54
2020/12/19 02:21:56;;;;;;;4.37;0.55;;;;;;;0.12;100.00;101823.23;1732713;82;21206;-54
2020/12/19 02:24:24;;;;;;;0.10;0.10;;;;;;;0.13;100.00;101822.23;1732698;81;21453;-54
2020/12/19 02:26:53;;;;;;;0.55;0.20;;;;;;;0.13;100.00;101824.93;1732667;82;21599;-54
2020/12/19 02:29:21;;;;;;;1.65;1.27;;;;;;;0.12;100.00;101817.86;1732676;81;21142;-54
2020/12/19 02:31:50;;;;;;;0.00;0.00;;;;;;;0.13;100.00;101820.90;1732900;82;21106;-55
2020/12/19 02:34:18;;;;;;;0.00;0.00;;;;;;;0.13;100.00;101821.73;1732605;81;21162;-54
2020/12/19 02:36:45;;;;;;;0.28;0.28;;;;;;;0.15;100.00;101822.91;1732654;82;21162;-54
2020/12/19 02:39:13;;;;;;;0.00;0.00;;;;;;;0.14;100.00;101831.45;1732599;81;21118;-54
2020/12/19 02:41:46;;;;;;;0.30;0.30;;;;;;;0.14;100.00;101831.97;1732737;82;21142;-54
2020/12/19 02:44:16;;;;;;;0.00;0.00;;;;;;;0.14;100.00;101835.48;1732626;81;21169;-54
2020/12/19 02:46:45;;;;;;;0.13;0.13;;;;;;;0.13;100.00;101833.83;1732873;82;21181;-54
2020/12/19 02:49:13;;;;;;;0.10;0.10;;;;;;;0.13;100.00;101837.03;1732617;81;21141;-54
2020/12/19 02:51:41;;;;;;;0.10;0.10;;;;;;;0.14;100.00;101834.14;1732633;82;21114;-54
2020/12/19 02:54:08;;;;;;;0.10;0.10;;;;;;;0.15;100.00;101829.63;1732586;81;21146;-54
2020/12/19 02:56:35;;;;;;;0.10;0.10;;;;;;;0.16;100.00;101836.16;1732769;82;21106;-54
2020/12/19 02:59:03;;;;;;;0.15;0.15;;;;;;;0.17;100.00;101831.61;1732630;81;21176;-54
2020/12/19 03:01:32;;;;;;;0.65;0.65;;;;;;;0.18;100.00;101833.30;1732657;82;21138;-54
2020/12/19 03:03:59;;;;;;;0.00;0.00;;;;;;;0.18;100.00;101826.06;1732767;81;21536;-54
2020/12/19 03:06:29;;;;;;;0.20;0.20;;;;;;;0.19;100.00;101829.58;1731865;82;21126;-54
2020/12/19 03:08:56;;;;;;;0.08;0.08;;;;;;;0.18;100.00;101829.27;1732570;81;21157;-54
2020/12/19 03:11:23;;;;;;;0.75;0.65;;;;;;;0.18;100.00;101827.92;1732750;82;21176;-54
2020/12/19 03:13:51;;;;;;;1.47;1.37;;;;;;;0.19;100.00;101821.52;1732619;81;21418;-54
2020/12/19 03:16:19;;;;;;;1.20;0.30;;;;;;;0.19;100.00;101825.55;1732751;82;21114;-54
2020/12/19 03:18:46;;;;;;;0.60;0.60;;;;;;;0.19;100.00;101826.89;1732762;81;21145;-54
2020/12/19 03:21:14;;;;;;;0.55;0.47;;;;;;;0.19;100.00;101832.27;1732807;82;21114;-54
2020/12/19 03:23:41;;;;;;;0.40;0.40;;;;;;;0.19;100.00;101823.69;1732730;81;21548;-54
2020/12/19 03:26:09;;;;;;;0.10;0.10;;;;;;;0.20;100.00;101824.55;1732648;82;21620;-54
2020/12/19 03:28:36;;;;;;;0.30;0.30;;;;;;;0.21;100.00;101822.19;1732629;81;21129;-54
2020/12/19 03:31:04;;;;;;;0.42;0.42;;;;;;;0.21;100.00;101819.50;1732774;82;21176;-54
2020/12/19 03:33:31;;;;;;;0.10;0.10;;;;;;;0.21;100.00;101817.64;1732684;81;21650;-54
2020/12/19 03:35:59;;;;;;;0.00;0.00;;;;;;;0.21;100.00;101812.26;1732497;82;21153;-54
2020/12/19 03:38:26;;;;;;;0.03;0.03;;;;;;;0.23;100.00;101816.13;1732495;81;21181;-54
2020/12/19 03:40:54;;;;;;;1.85;0.82;;;;;;;0.23;100.00;101810.75;1732695;82;21469;-54
2020/12/19 03:43:22;;;;;;;0.20;0.20;;;;;;;0.24;100.00;101817.79;1732678;81;21226;-54
2020/12/19 03:45:49;;;;;;;0.03;0.03;;;;;;;0.25;100.00;101817.27;1732607;82;21099;-53
2020/12/19 03:48:17;;;;;;;12.53;0.62;;;;;;;0.26;100.00;101826.52;1732574;82;21186;-54
2020/12/19 03:50:44;;;;;;;0.25;0.20;;;;;;;0.26;100.00;101827.86;1732486;81;21129;-54
2020/12/19 03:53:12;;;;;;;0.20;0.20;;;;;;;0.24;100.00;101815.10;1732630;82;21125;-54
2020/12/19 03:55:39;;;;;;;0.62;0.62;;;;;;;0.26;100.00;101817.11;1732581;81;21114;-54
2020/12/19 03:58:07;;;;;;;0.10;0.10;;;;;;;0.27;100.00;101814.73;1732782;82;21126;-54
2020/12/19 04:00:34;;;;;;;0.28;0.28;;;;;;;0.27;100.00;101818.77;1732825;81;21465;-54
2020/12/19 04:03:02;;;;;;;1.17;0.82;;;;;;;0.28;100.00;101821.80;1732551;82;21198;-54
2020/12/19 04:05:30;;;;;;;0.40;0.40;;;;;;;0.28;100.00;101828.53;1732637;81;21126;-54
2020/12/19 04:07:57;;;;;;;0.60;0.60;;;;;;;0.28;100.00;101812.91;1732659;82;21169;-54
2020/12/19 04:10:25;;;;;;;0.23;0.23;;;;;;;0.28;100.00;101812.39;1732724;81;21563;-54
2020/12/19 04:12:53;;;;;;;1.20;0.65;;;;;;;0.28;100.00;101828.53;1732715;82;21166;-54
2020/12/19 04:15:23;;;;;;;0.00;0.00;;;;;;;0.28;100.00;101819.63;1732566;81;21130;-54
2020/12/19 04:17:51;;;;;;;1.50;1.10;;;;;;;0.28;100.00;101823.16;1732668;82;21476;-54
2020/12/19 04:20:18;;;;;;;0.00;0.00;;;;;;;0.28;100.00;101824.49;1732560;81;21114;-54
2020/12/19 04:22:46;;;;;;;0.90;0.33;;;;;;;0.28;100.00;101820.46;1732719;82;21603;-54
2020/12/19 04:25:13;;;;;;;5.25;1.55;;;;;;;0.28;100.00;101819.63;1732552;81;21563;-54
2020/12/19 04:27:41;;;;;;;0.00;0.00;;;;;;;0.29;100.00;101822.64;1732563;82;21178;-54
2020/12/19 04:30:09;;;;;;;0.53;0.50;;;;;;;0.30;100.00;101820.30;1732537;81;21125;-54
2020/12/19 04:32:37;;;;;;;0.98;0.93;;;;;;;0.30;100.00;101827.84;1732526;82;21153;-54
2020/12/19 04:35:05;;;;;;;1.12;0.95;;;;;;;0.28;100.00;101820.46;1732565;81;21133;-54
2020/12/19 04:37:32;;;;;;;0.28;0.28;;;;;;;0.27;100.00;101828.18;1732653;82;21158;-55
2020/12/19 04:40:00;;;;;;;1.02;1.02;;;;;;;0.28;100.00;101827.19;1732477;81;22113;-54
2020/12/19 04:42:29;;;;;;;1.35;0.68;;;;;;;0.25;100.00;101818.14;1732236;82;21421;-54
2020/12/19 04:44:56;;;;;;;0.70;0.70;;;;;;;0.24;100.00;101827.20;1732498;81;21134;-54
2020/12/19 04:47:23;;;;;;;0.70;0.70;;;;;;;0.25;100.00;101828.03;1732669;82;21131;-54
2020/12/19 04:49:51;;;;;;;0.53;0.53;;;;;;;0.24;100.00;101828.55;1732724;81;21465;-54
2020/12/19 04:52:19;;;;;;;0.62;0.62;;;;;;;0.24;100.00;101828.55;1732571;82;21177;-54
2020/12/19 04:54:46;;;;;;;0.03;0.03;;;;;;;0.24;100.00;101822.33;1732680;81;21449;-54
2020/12/19 04:59:58;;;;;;;0.53;0.53;;;;;;;0.28;100.00;101829.87;1864263;76;29508;-53
2020/12/19 05:02:25;;;;;;;1.25;1.05;;;;;;;0.24;100.00;101826.37;1825264;78;21114;-53
2020/12/19 05:04:52;;;;;;;0.78;0.40;;;;;;;0.23;100.00;101825.54;1825207;77;21142;-53
2020/12/19 05:07:22;;;;;;;0.28;0.28;;;;;;;0.23;100.00;101828.23;1820039;78;21146;-53
2020/12/19 05:09:49;;;;;;;0.85;0.85;;;;;;;0.23;100.00;101828.73;1825049;77;21123;-53
2020/12/19 05:12:17;;;;;;;0.10;0.10;;;;;;;0.23;100.00;101832.26;1788633;80;21091;-53
2020/12/19 05:14:44;;;;;;;0.17;0.17;;;;;;;0.23;100.00;101833.60;1788547;78;21115;-52
2020/12/19 05:17:11;;;;;;;0.23;0.23;;;;;;;0.23;100.00;101834.95;1788660;80;21142;-53
2020/12/19 05:19:39;;;;;;;0.80;0.80;;;;;;;0.24;100.00;101839.30;1788507;80;21129;-53
2020/12/19 05:22:06;;;;;;;0.93;0.93;;;;;;;0.24;100.00;101836.61;1788677;80;21085;-52
2020/12/19 05:24:37;;;;;;;1.17;1.05;;;;;;;0.25;100.00;101838.30;1788646;80;21146;-53
2020/12/19 05:27:04;;;;;;;0.10;0.10;;;;;;;0.25;100.00;101831.58;1788499;80;21568;-53
2020/12/19 05:29:34;;;;;;;0.10;0.10;;;;;;;0.27;100.00;101845.66;1788431;78;21141;-53
2020/12/19 05:32:01;;;;;;;1.67;1.55;;;;;;;0.27;100.00;101838.94;1755723;81;21168;-53
2020/12/19 05:34:29;;;;;;;2.37;2.15;;;;;;;0.27;100.00;101843.48;1788567;78;21180;-53
2020/12/19 05:36:57;;;;;;;1.45;0.95;;;;;;;0.27;100.00;101845.66;1788642;80;21131;-53
2020/12/19 05:39:24;;;;;;;0.98;0.75;;;;;;;0.27;100.00;101840.28;1788565;78;21138;-53
2020/12/19 05:41:52;;;;;;;1.15;1.15;;;;;;;0.28;100.00;101845.17;1788658;80;21170;-53
2020/12/19 05:44:20;;;;;;;1.40;1.30;;;;;;;0.27;100.00;101848.34;1788615;78;21142;-53
2020/12/19 05:46:48;;;;;;;0.85;0.53;;;;;;;0.28;100.00;101851.89;1788706;80;21201;-53
2020/12/19 05:49:16;;;;;;;0.08;0.08;;;;;;;0.28;100.00;101850.55;1788618;78;21137;-53
2020/12/19 05:51:44;;;;;;;1.90;0.62;;;;;;;0.29;100.00;101847.67;1788465;80;21463;-53
2020/12/19 05:54:14;;;;;;;0.57;0.57;;;;;;;0.29;100.00;101854.39;1788581;78;21137;-53
2020/12/19 05:56:44;;;;;;;0.55;0.55;;;;;;;0.29;100.00;101853.05;1788571;80;20999;-53
2020/12/19 05:59:13;;;;;;;0.80;0.80;;;;;;;0.29;100.00;101853.05;1788354;78;21110;-53
2020/12/19 06:01:47;;;;;;;0.35;0.35;;;;;;;0.31;100.00;101847.50;1788722;80;21098;-53
2020/12/19 06:04:16;;;;;;;0.10;0.10;;;;;;;0.31;100.00;101842.95;1788611;78;21122;-53
2020/12/19 06:06:45;;;;;;;1.22;0.40;;;;;;;0.33;100.00;101854.37;1788418;80;21170;-53
2020/12/19 06:09:14;;;;;;;0.80;0.80;;;;;;;0.33;100.00;101855.72;1788278;78;21138;-53
2020/12/19 06:11:51;;;;;;;0.42;0.42;;;;;;;0.34;100.00;101870.83;1788032;80;21126;-53
2020/12/19 06:14:22;;;;;;;0.20;0.20;;;;;;;0.35;100.00;101859.07;1787985;78;21118;-52
2020/12/19 06:16:54;;;;;;;1.12;1.02;;;;;;;0.37;100.00;101863.77;1755394;81;21138;-53
2020/12/19 06:19:23;;;;;;;;;;;;;;;0.40;100.00;101859.89;1790710;78;21429;-53
2020/12/19 06:21:56;;;;;;;0.30;0.30;;;;;;;0.39;100.00;101867.61;1788018;80;20155;-53
2020/12/19 06:24:46;;;;;;;0.20;0.20;;;;;;;0.38;100.00;101886.95;1788231;80;21114;-53
2020/12/19 06:27:28;;;;;;;1.70;0.30;;;;;;;0.40;100.00;101884.09;1787954;80;21193;-52
2020/12/19 06:29:56;;;;;;;0.40;0.40;;;;;;;0.42;100.00;101896.83;1755335;80;21481;-53
2020/12/19 06:32:25;;;;;;;1.00;0.95;;;;;;;0.43;100.00;101903.39;1787088;80;21114;-53
2020/12/19 06:35:10;;;;;;;0.25;0.25;;;;;;;0.46;100.00;101892.78;1813983;79;21122;-53
2020/12/19 06:37:40;;;;;;;2.25;2.05;;;;;;;0.49;100.00;101890.24;1766897;80;21474;-54
2020/12/19 06:40:19;;;;;;;0.98;0.98;;;;;;;0.50;100.00;101896.80;1750614;81;21023;-54
2020/12/19 06:42:52;;;;;;;0.25;0.25;;;;;;;0.53;100.00;101909.06;1761684;79;21111;-54
2020/12/19 06:45:29;;;;;;;0.45;0.45;;;;;;;0.53;100.00;101904.52;1786452;79;21141;-53
2020/12/19 06:47:57;;;;;;;0.75;0.70;;;;;;;0.55;100.00;101904.34;1809343;79;21137;-54
2020/12/19 06:50:25;;;;;;;1.77;1.07;;;;;;;0.56;100.00;101903.31;1755816;80;21113;-54
2020/12/19 06:52:58;;;;;;;0.30;0.30;;;;;;;0.57;100.00;101904.98;1783512;80;21111;-54
2020/12/19 06:55:29;;;;;;;0.33;0.33;;;;;;;0.58;100.00;101908.02;1790633;79;21178;-54
2020/12/19 06:57:58;;;;;;;1.65;1.30;;;;;;;0.60;100.00;101915.41;1786652;80;21134;-53
2020/12/19 07:00:30;;;;;;;1.82;0.40;;;;;;;0.62;100.00;101908.83;1764616;80;21962;-53
2020/12/19 07:03:03;;;;;;;0.20;0.20;;;;;;;0.64;100.00;101905.95;1747535;82;21158;-53
2020/12/19 07:05:33;;;;;;;0.82;0.80;;;;;;;0.64;100.00;101911.33;1747471;82;21194;-53
2020/12/19 07:08:18;;;;;;;0.70;0.70;;;;;;;0.64;100.00;101904.59;1760226;79;21118;-53
2020/12/19 07:10:47;;;;;;;0.20;0.20;;;;;;;0.66;100.00;101909.30;1774821;80;21479;-53
2020/12/19 07:13:15;;;;;;;0.20;0.20;;;;;;;0.68;100.00;101914.52;1774761;80;21549;-54
2020/12/19 07:15:49;;;;;;;0.47;0.47;;;;;;;0.69;100.00;101916.17;1774727;80;21125;-54
2020/12/19 07:18:33;;;;;;;4.15;0.82;;;;;;;0.70;100.00;101916.02;1749043;80;21524;-54
2020/12/19 07:21:09;;;;;;;0.17;0.17;;;;;;;0.72;100.00;101915.33;1747420;82;21481;-54
2020/12/19 07:23:38;;;;;;;1.80;1.30;;;;;;;0.76;100.00;101922.01;1747418;82;21222;-53
2020/12/19 07:26:08;;;;;;;0.65;0.62;;;;;;;0.78;100.00;101929.91;1705323;82;21197;-54
2020/12/19 07:28:36;;;;;;;0.23;0.23;;;;;;;0.80;100.00;101930.06;1729157;82;21123;-53
2020/12/19 07:31:03;;;;;;;1.80;0.62;;;;;;;0.84;100.00;101934.09;1729293;82;21153;-53
2020/12/19 07:33:31;;;;;;;1.55;1.45;;;;;;;0.85;100.00;101931.71;1729317;82;21154;-54
2020/12/19 07:35:59;;;;;;;0.28;0.28;;;;;;;0.89;100.00;101936.24;1753902;81;21183;-54
2020/12/19 07:38:27;;;;;;;0.17;0.17;;;;;;;0.92;100.00;101939.09;1761357;80;21122;-54
2020/12/19 07:40:55;;;;;;;0.47;0.35;;;;;;;0.93;100.00;101940.75;1749910;81;21118;-54
2020/12/19 07:43:23;;;;;;;1.27;1.05;;;;;;;0.96;100.00;101942.55;1748378;80;21403;-54
2020/12/19 07:45:57;;;;;;;0.20;0.20;;;;;;;0.98;100.00;101935.66;1784401;79;21131;-54
2020/12/19 07:48:24;;;;;;;0.75;0.75;;;;;;;1.01;100.00;101947.41;1788567;80;21116;-53
2020/12/19 07:50:51;;;;;;;0.08;0.08;;;;;;;1.03;100.00;101942.17;1759657;80;21186;-54
2020/12/19 07:53:19;;;;;;;0.50;0.50;;;;;;;1.06;100.00;101950.40;1782283;80;21137;-53
2020/12/19 07:55:50;;;;;;;0.10;0.10;;;;;;;1.07;100.00;101946.70;1786544;80;21568;-54
2020/12/19 07:58:21;;;;;;;2.42;1.57;;;;;;;1.07;100.00;101948.88;1747305;81;21155;-53
2020/12/19 08:00:48;;;;;;;0.60;0.60;;;;;;;1.07;100.00;101948.05;1725673;79;21189;-54
2020/12/19 08:03:16;;;;;;;0.00;0.00;;;;;;;1.08;100.00;101949.20;1758954;80;21585;-53
2020/12/19 08:05:43;;;;;;;0.82;0.70;;;;;;;1.08;100.00;101949.20;1755281;81;21142;-53
2020/12/19 08:08:11;;;;;;;0.68;0.68;;;;;;;1.08;100.00;101942.98;1782943;80;21174;-54
2020/12/19 08:10:39;;;;;;;1.37;1.37;;;;;;;1.10;100.00;101940.95;1783936;79;21142;-54
2020/12/19 08:13:12;;;;;;;1.22;0.62;;;;;;;1.11;100.00;101949.34;1783980;80;21130;-54
2020/12/19 08:15:39;;;;;;;0.42;0.42;;;;;;;1.12;100.00;101938.92;1777778;78;21590;-54
2020/12/19 08:18:07;;;;;;;1.72;1.50;;;;;;;1.12;100.00;101936.23;1783371;80;21775;-54
2020/12/19 08:20:36;;;;;;;4.28;2.70;;;;;;;1.13;100.00;101940.59;1794396;79;21189;-54
2020/12/19 08:23:07;;;;;;;2.30;1.72;;;;;;;1.15;100.00;101930.99;1745159;80;21154;-54
2020/12/19 08:25:35;;;;;;;1.07;1.05;;;;;;;1.17;100.00;101937.88;1781878;80;21162;-54
2020/12/19 08:28:03;;;;;;;1.60;1.10;;;;;;;1.20;100.00;101939.36;1784298;78;21435;-54
2020/12/19 08:30:31;;;;;;;0.60;0.60;;;;;;;1.21;100.00;101932.46;1784561;78;21130;-54
2020/12/19 08:33:07;;;;;;;0.20;0.20;;;;;;;1.22;100.00;101936.81;1784810;79;21530;-54
2020/12/19 08:38:21;;;;;;;1.67;1.57;;;;;;;1.32;100.00;101941.13;1882999;74;29107;-53
2020/12/19 08:40:49;;;;;;;2.00;1.90;;;;;;;1.27;100.00;101931.72;1813164;78;21620;-53
2020/12/19 08:43:19;;;;;;;0.35;0.35;;;;;;;1.31;100.00;101931.34;1813650;79;21168;-53
2020/12/19 08:45:47;;;;;;;0.10;0.10;;;;;;;1.33;100.00;101922.06;1784838;79;21197;-53
2020/12/19 08:48:22;;;;;;;0.65;0.65;;;;;;;1.36;100.00;101923.08;1782249;80;21161;-53
2020/12/19 08:50:53;;;;;;;0.30;0.30;;;;;;;1.39;100.00;101924.05;1785378;79;21122;-53
2020/12/19 08:53:23;;;;;;;0.95;0.70;;;;;;;1.43;100.00;101921.81;1787559;79;21549;-53
2020/12/19 08:55:52;;;;;;;0.65;0.65;;;;;;;1.42;100.00;101914.77;1788113;78;21163;-53
2020/12/19 08:58:28;;;;;;;0.33;0.33;;;;;;;1.44;100.00;101911.37;1791853;80;21190;-53
2020/12/19 09:00:57;;;;;;;0.82;0.82;;;;;;;1.44;100.00;101916.77;1775108;78;21101;-53
2020/12/19 09:03:32;;;;;;;0.20;0.20;;;;;;;1.43;100.00;101915.91;1775761;78;21149;-53
2020/12/19 09:06:04;;;;;;;0.65;0.55;;;;;;;1.44;100.00;101918.95;1784802;79;21137;-53
2020/12/19 09:08:38;;;;;;;0.93;0.85;;;;;;;1.45;100.00;101917.91;1783454;79;26087;-53
2020/12/19 09:11:07;;;;;;;2.55;1.52;;;;;;;1.46;100.00;101914.22;1783190;80;21163;-53
2020/12/19 09:13:36;;;;;;;0.10;0.10;;;;;;;1.48;100.00;101909.48;1809887;79;21122;-53
2020/12/19 09:16:10;;;;;;;0.70;0.57;;;;;;;1.52;100.00;101913.98;1789911;79;21090;-53
2020/12/19 09:18:38;;;;;;;1.22;0.95;;;;;;;1.53;100.00;101916.16;1784136;79;21114;-54
2020/12/19 09:21:07;;;;;;;0.10;0.10;;;;;;;1.52;100.00;101911.30;1785358;79;21674;-54
2020/12/19 09:23:35;;;;;;;1.42;1.12;;;;;;;1.53;100.00;101914.30;1787606;79;21149;-54
2020/12/19 09:26:04;;;;;;;1.47;1.37;;;;;;;1.54;100.00;101907.08;1783870;79;21149;-54
2020/12/19 09:28:33;;;;;;;0.40;0.40;;;;;;;1.54;100.00;101909.25;1810912;79;21556;-54
2020/12/19 09:31:00;;;;;;;3.17;2.02;;;;;;;1.55;100.00;101904.18;1812616;78;21129;-54
2020/12/19 09:33:28;;;;;;;1.55;1.45;;;;;;;1.56;100.00;101905.02;1785482;78;21130;-54
2020/12/19 09:35:55;;;;;;;9.88;1.72;;;;;;;1.58;100.00;101909.20;1785468;79;21165;-54
2020/12/19 09:38:23;;;;;;;2.47;0.53;;;;;;;1.59;100.00;101908.19;1800671;78;21103;-54
2020/12/19 09:40:51;;;;;;;1.35;1.25;;;;;;;1.59;100.00;101902.80;1776014;80;21146;-54
2020/12/19 09:43:18;;;;;;;1.25;1.05;;;;;;;1.60;100.00;101905.81;1783620;78;21138;-54
2020/12/19 09:45:46;;;;;;;1.25;1.15;;;;;;;1.61;100.00;101902.62;1796244;78;21161;-54
2020/12/19 09:48:14;;;;;;;0.60;0.60;;;;;;;1.63;100.00;101903.26;1805088;78;21196;-54
2020/12/19 09:50:41;;;;;;;3.30;3.08;;;;;;;1.64;100.00;101893.66;1802035;78;21457;-53
2020/12/19 09:53:09;;;;;;;0.20;0.20;;;;;;;1.64;100.00;101886.91;1786899;80;21154;-53
2020/12/19 09:55:36;;;;;;;2.42;1.35;;;;;;;1.67;100.00;101893.27;1796478;78;21093;-54
2020/12/19 09:58:04;;;;;;;0.80;0.80;;;;;;;1.70;100.00;101892.89;1779367;78;21177;-54
2020/12/19 10:00:33;;;;;;;1.77;1.37;;;;;;;1.71;100.00;101893.23;1772417;79;21142;-54
2020/12/19 10:03:00;;;;;;;0.93;0.93;;;;;;;1.71;100.00;101890.55;1772139;79;21434;-54
2020/12/19 10:05:28;;;;;;;1.12;0.40;;;;;;;1.72;100.00;101905.68;1803458;78;21142;-53
2020/12/19 10:07:57;;;;;;;0.62;0.62;;;;;;;1.75;100.00;101898.25;1787383;79;21175;-54
2020/12/19 10:10:26;;;;;;;1.37;1.27;;;;;;;1.76;100.00;101889.16;1791881;78;21137;-55
2020/12/19 10:12:54;;;;;;;0.65;0.65;;;;;;;1.79;100.00;101892.83;1807053;78;21161;-54
2020/12/19 10:15:21;;;;;;;0.62;0.62;;;;;;;1.82;100.00;101883.02;1764136;79;21135;-54
2020/12/19 10:17:49;;;;;;;0.93;0.93;;;;;;;1.84;100.00;101883.15;1819658;78;21132;-54
2020/12/19 10:20:16;;;;;;;0.50;0.50;;;;;;;1.87;100.00;101883.29;1792628;78;21581;-54
2020/12/19 10:22:46;;;;;;;1.77;1.07;;;;;;;1.89;100.00;101882.59;1765167;79;21147;-54
2020/12/19 10:25:13;;;;;;;0.75;0.75;;;;;;;1.89;100.00;101881.25;1764284;79;21138;-53
2020/12/19 10:27:41;;;;;;;0.53;0.42;;;;;;;1.91;100.00;101881.91;1810066;78;21461;-54
2020/12/19 10:30:09;;;;;;;0.20;0.20;;;;;;;1.92;100.00;101879.52;1802384;78;21238;-54
2020/12/19 10:32:36;;;;;;;1.50;1.20;;;;;;;1.91;100.00;101887.30;1765679;79;21122;-54
2020/12/19 10:35:06;;;;;;;0.85;0.42;;;;;;;1.91;100.00;101888.64;1772354;80;21154;-53
2020/12/19 10:37:34;;;;;;;1.15;1.05;;;;;;;1.90;100.00;101886.95;1770679;79;21129;-53
2020/12/19 10:40:03;;;;;;;0.75;0.75;;;;;;;1.90;100.00;101884.25;1791159;79;21561;-53
2020/12/19 10:42:30;;;;;;;0.90;0.47;;;;;;;1.88;100.00;101877.72;1791554;78;21130;-53
2020/12/19 10:44:58;;;;;;;0.50;0.50;;;;;;;1.89;100.00;101882.08;1775970;79;21104;-53
2020/12/19 10:47:25;;;;;;;4.95;0.88;;;;;;;1.91;100.00;101883.25;1793805;78;21130;-53
2020/12/19 10:49:53;;;;;;;3.22;0.30;;;;;;;1.93;100.00;101874.47;1795695;78;21151;-53
2020/12/19 10:52:21;;;;;;;1.70;0.62;;;;;;;1.95;100.00;101883.18;1806492;78;21158;-53
2020/12/19 10:54:49;;;;;;;0.20;0.20;;;;;;;1.93;100.00;101882.04;1795035;78;21126;-53
2020/12/19 10:57:17;;;;;;;2.17;1.12;;;;;;;1.91;100.00;101880.03;1811229;78;21098;-53
2020/12/19 10:59:44;;;;;;;1.00;1.00;;;;;;;1.92;100.00;101885.73;1785574;78;21136;-53
2020/12/19 11:02:12;;;;;;;0.42;0.42;;;;;;;1.92;100.00;101886.26;1788843;78;21174;-53
2020/12/19 11:04:39;;;;;;;1.75;1.65;;;;;;;1.91;100.00;101885.95;1808717;77;21406;-53
2020/12/19 11:07:07;;;;;;;0.53;0.53;;;;;;;1.89;100.00;101883.94;1796692;78;21111;-53
2020/12/19 11:09:34;;;;;;;0.70;0.70;;;;;;;1.88;100.00;101880.91;1804264;77;21123;-53
2020/12/19 11:12:02;;;;;;;9.03;1.80;;;;;;;1.87;100.00;101885.47;1815693;78;21177;-53
2020/12/19 11:14:31;;;;;;;1.12;0.82;;;;;;;1.87;100.00;101884.64;1758227;80;21176;-53
2020/12/19 11:16:58;;;;;;;2.83;2.52;;;;;;;1.87;100.00;101887.33;1774754;78;21415;-53
2020/12/19 11:19:27;;;;;;;4.50;1.65;;;;;;;1.87;100.00;101892.72;1785774;80;21083;-53
2020/12/19 11:21:55;;;;;;;1.45;1.40;;;;;;;1.86;100.00;101898.63;1784492;78;21518;-53
2020/12/19 11:24:23;;;;;;;1.72;1.62;;;;;;;1.85;100.00;101892.06;1785447;78;21127;-53
2020/12/19 11:26:50;;;;;;;6.15;2.50;;;;;;;1.87;100.00;101888.68;1805779;79;21194;-53
2020/12/19 11:29:17;;;;;;;3.92;1.92;;;;;;;1.89;100.00;101892.86;1781323;79;21114;-53
2020/12/19 11:31:45;;;;;;;2.45;1.37;;;;;;;1.89;100.00;101889.33;1774945;78;21154;-53
2020/12/19 11:34:12;;;;;;;0.45;0.45;;;;;;;1.88;100.00;101891.20;1770664;78;21170;-53
2020/12/19 11:36:40;;;;;;;1.17;0.88;;;;;;;1.87;100.00;101890.03;1773262;78;21796;-53
2020/12/19 11:39:10;;;;;;;2.08;1.98;;;;;;;1.88;100.00;101893.89;1764674;78;21127;-53